This is the latest recevied weather packets stored in our database for station/object KB3AWQ. If no packets are shown the sender has not sent any weather packets the latest 10 day(s).
| Time | Temp. | Humidity | Pressure | Rain* | Wind** | Luminosity | Snow |
|---|---|---|---|---|---|---|---|
| 1788107667 | 23.89° C | 77% | 1021 hPa | 0 mm | - | 601 W/m² | - |
| 1788107366 | 23.33° C | 77% | 1021.1 hPa | 0 mm | - | 556 W/m² | - |
| 1788107074 | 23.33° C | 77% | 1021.1 hPa | 0 mm | - | 538 W/m² | - |
| 1788106766 | 23.33° C | 76% | 1021.1 hPa | 0 mm | - | 363 W/m² | - |
| 1788106466 | 23.89° C | 75% | 1021.1 hPa | 0 mm | - | 280 W/m² | - |
| 1788106166 | 23.89° C | 76% | 1021.2 hPa | 0 mm | - | 286 W/m² | - |
| 1788105866 | 23.89° C | 76% | 1021.3 hPa | 0 mm | - | 320 W/m² | - |
| 1788105567 | 23.89° C | 75% | 1021.4 hPa | 0 mm | - | 368 W/m² | - |
| 1788105267 | 24.44° C | 73% | 1021.4 hPa | 0 mm | - | 388 W/m² | - |
| 1788104967 | 24.44° C | 74% | 1021.4 hPa | 0 mm | - | 398 W/m² | - |
| 1788104666 | 23.89° C | 75% | 1021.5 hPa | 0 mm | - | 395 W/m² | - |
| 1788104367 | 24.44° C | 72% | 1021.6 hPa | 0 mm | - | 449 W/m² | - |
| 1788104066 | 24.44° C | 71% | 1021.6 hPa | 0 mm | - | 415 W/m² | - |
| 1788103767 | 24.44° C | 73% | 1021.6 hPa | 0 mm | - | 561 W/m² | - |
| 1788103466 | 23.89° C | 73% | 1021.6 hPa | 0 mm | - | 872 W/m² | - |
| 1788103167 | 23.33° C | 75% | 1021.6 hPa | 0 mm | - | 837 W/m² | - |
| 1788102866 | 22.78° C | 78% | 1021.7 hPa | 0 mm | - | 803 W/m² | - |
| 1788102566 | 22.22° C | 77% | 1021.7 hPa | 0 mm | - | 716 W/m² | - |
| 1788102266 | 22.22° C | 79% | 1021.6 hPa | 0 mm | - | 795 W/m² | - |
| 1788101966 | 21.67° C | 79% | 1021.5 hPa | 0 mm | - | 349 W/m² | - |
| 1788101666 | 21.67° C | 80% | 1021.5 hPa | 0 mm | - | 348 W/m² | - |
| 1788101366 | 21.67° C | 80% | 1021.4 hPa | 0 mm | - | 363 W/m² | - |
| 1788101066 | 21.67° C | 81% | 1021.4 hPa | 0 mm | - | 281 W/m² | - |
| 1788100767 | 21.67° C | 79% | 1021.3 hPa | 0 mm | - | 221 W/m² | - |
| 1788100467 | 21.67° C | 78% | 1021.3 hPa | 0 mm | - | 210 W/m² | - |
* Rain latest hour (hover to see other rain measurements)
** Current wind speed in m/s (hover to see current wind gust speed)